sensor_id;sensor_type;location;lat;lon;timestamp;P1;durP1;ratioP1;P2;durP2;ratioP2
16440;SDS011;8330;-33.858;151.184;2022-12-11T00:00:50;6.78;;;1.73;;
16440;SDS011;8330;-33.858;151.184;2022-12-11T00:03:21;3.88;;;1.30;;
16440;SDS011;8330;-33.858;151.184;2022-12-11T00:05:52;2.80;;;1.10;;
16440;SDS011;8330;-33.858;151.184;2022-12-11T00:08:24;4.88;;;1.40;;
16440;SDS011;8330;-33.858;151.184;2022-12-11T00:10:58;4.65;;;1.38;;
16440;SDS011;8330;-33.858;151.184;2022-12-11T00:13:29;5.53;;;1.60;;
16440;SDS011;8330;-33.858;151.184;2022-12-11T00:16:00;3.92;;;1.40;;
16440;SDS011;8330;-33.858;151.184;2022-12-11T00:18:32;7.60;;;1.60;;
16440;SDS011;8330;-33.858;151.184;2022-12-11T00:21:04;8.02;;;1.67;;
16440;SDS011;8330;-33.858;151.184;2022-12-11T00:23:36;5.25;;;1.20;;
16440;SDS011;8330;-33.858;151.184;2022-12-11T00:26:11;8.70;;;1.30;;
16440;SDS011;8330;-33.858;151.184;2022-12-11T00:28:43;5.20;;;1.20;;
16440;SDS011;8330;-33.858;151.184;2022-12-11T00:31:14;4.65;;;1.30;;
16440;SDS011;8330;-33.858;151.184;2022-12-11T00:33:47;2.65;;;0.98;;
16440;SDS011;8330;-33.858;151.184;2022-12-11T00:36:20;2.90;;;1.15;;
16440;SDS011;8330;-33.858;151.184;2022-12-11T00:38:52;3.83;;;1.40;;
16440;SDS011;8330;-33.858;151.184;2022-12-11T00:41:25;5.25;;;1.30;;
16440;SDS011;8330;-33.858;151.184;2022-12-11T00:43:56;6.63;;;1.50;;
16440;SDS011;8330;-33.858;151.184;2022-12-11T00:46:27;4.28;;;1.50;;
16440;SDS011;8330;-33.858;151.184;2022-12-11T00:48:58;5.88;;;1.42;;
16440;SDS011;8330;-33.858;151.184;2022-12-11T00:51:29;4.30;;;1.40;;
16440;SDS011;8330;-33.858;151.184;2022-12-11T00:54:00;8.70;;;1.73;;
16440;SDS011;8330;-33.858;151.184;2022-12-11T00:56:34;7.13;;;1.40;;
16440;SDS011;8330;-33.858;151.184;2022-12-11T00:59:06;5.50;;;1.63;;
16440;SDS011;8330;-33.858;151.184;2022-12-11T01:01:38;8.57;;;1.98;;
16440;SDS011;8330;-33.858;151.184;2022-12-11T01:04:11;8.38;;;1.63;;
16440;SDS011;8330;-33.858;151.184;2022-12-11T01:06:42;5.85;;;1.73;;
16440;SDS011;8330;-33.858;151.184;2022-12-11T01:09:12;7.65;;;1.90;;
16440;SDS011;8330;-33.858;151.184;2022-12-11T01:12:01;5.68;;;1.60;;
16440;SDS011;8330;-33.858;151.184;2022-12-11T01:14:32;6.20;;;2.03;;
16440;SDS011;8330;-33.858;151.184;2022-12-11T01:17:02;7.40;;;1.50;;
16440;SDS011;8330;-33.858;151.184;2022-12-11T01:19:37;4.07;;;1.45;;
16440;SDS011;8330;-33.858;151.184;2022-12-11T01:22:08;6.25;;;1.52;;
16440;SDS011;8330;-33.858;151.184;2022-12-11T01:24:39;6.28;;;1.67;;
16440;SDS011;8330;-33.858;151.184;2022-12-11T01:27:12;5.82;;;1.52;;
16440;SDS011;8330;-33.858;151.184;2022-12-11T01:29:44;5.20;;;1.42;;
16440;SDS011;8330;-33.858;151.184;2022-12-11T01:32:15;5.53;;;1.60;;
16440;SDS011;8330;-33.858;151.184;2022-12-11T01:34:46;6.78;;;1.45;;
16440;SDS011;8330;-33.858;151.184;2022-12-11T01:37:18;5.88;;;1.50;;
16440;SDS011;8330;-33.858;151.184;2022-12-11T01:39:49;5.90;;;1.48;;
16440;SDS011;8330;-33.858;151.184;2022-12-11T01:42:22;4.97;;;1.30;;
16440;SDS011;8330;-33.858;151.184;2022-12-11T01:47:53;6.78;;;1.50;;
16440;SDS011;8330;-33.858;151.184;2022-12-11T01:50:34;4.18;;;1.23;;
16440;SDS011;8330;-33.858;151.184;2022-12-11T01:53:09;5.13;;;1.42;;
16440;SDS011;8330;-33.858;151.184;2022-12-11T01:55:45;3.95;;;1.10;;
16440;SDS011;8330;-33.858;151.184;2022-12-11T01:58:25;4.75;;;1.38;;
16440;SDS011;8330;-33.858;151.184;2022-12-11T02:00:58;8.95;;;1.30;;
16440;SDS011;8330;-33.858;151.184;2022-12-11T02:03:30;2.50;;;1.00;;
16440;SDS011;8330;-33.858;151.184;2022-12-11T02:06:01;5.45;;;1.50;;
16440;SDS011;8330;-33.858;151.184;2022-12-11T02:08:32;5.10;;;1.30;;
16440;SDS011;8330;-33.858;151.184;2022-12-11T02:11:05;4.78;;;1.60;;
16440;SDS011;8330;-33.858;151.184;2022-12-11T02:13:46;4.65;;;1.38;;
16440;SDS011;8330;-33.858;151.184;2022-12-11T02:16:24;4.10;;;1.33;;
16440;SDS011;8330;-33.858;151.184;2022-12-11T02:19:00;6.03;;;1.40;;
16440;SDS011;8330;-33.858;151.184;2022-12-11T02:21:38;6.55;;;1.40;;
16440;SDS011;8330;-33.858;151.184;2022-12-11T02:27:15;4.63;;;1.35;;
16440;SDS011;8330;-33.858;151.184;2022-12-11T02:29:58;6.43;;;1.35;;
16440;SDS011;8330;-33.858;151.184;2022-12-11T02:32:34;6.32;;;1.70;;
16440;SDS011;8330;-33.858;151.184;2022-12-11T02:35:09;4.75;;;1.20;;
16440;SDS011;8330;-33.858;151.184;2022-12-11T02:37:46;6.65;;;1.48;;
16440;SDS011;8330;-33.858;151.184;2022-12-11T02:40:25;6.15;;;1.60;;
16440;SDS011;8330;-33.858;151.184;2022-12-11T02:43:00;2.72;;;0.98;;
16440;SDS011;8330;-33.858;151.184;2022-12-11T02:45:35;6.43;;;1.52;;
16440;SDS011;8330;-33.858;151.184;2022-12-11T02:48:08;3.67;;;1.40;;
16440;SDS011;8330;-33.858;151.184;2022-12-11T02:50:41;3.50;;;1.10;;
16440;SDS011;8330;-33.858;151.184;2022-12-11T02:53:15;5.40;;;1.55;;
16440;SDS011;8330;-33.858;151.184;2022-12-11T02:55:51;5.38;;;1.27;;
16440;SDS011;8330;-33.858;151.184;2022-12-11T02:58:27;7.38;;;1.40;;
16440;SDS011;8330;-33.858;151.184;2022-12-11T03:01:02;4.78;;;1.75;;
16440;SDS011;8330;-33.858;151.184;2022-12-11T03:03:33;4.00;;;1.23;;
16440;SDS011;8330;-33.858;151.184;2022-12-11T03:06:03;3.78;;;1.05;;
16440;SDS011;8330;-33.858;151.184;2022-12-11T03:08:35;3.40;;;1.40;;
16440;SDS011;8330;-33.858;151.184;2022-12-11T03:11:09;6.47;;;1.40;;
16440;SDS011;8330;-33.858;151.184;2022-12-11T03:13:40;3.90;;;1.33;;
16440;SDS011;8330;-33.858;151.184;2022-12-11T03:16:17;4.88;;;1.40;;
16440;SDS011;8330;-33.858;151.184;2022-12-11T03:18:59;3.40;;;1.10;;
16440;SDS011;8330;-33.858;151.184;2022-12-11T03:21:39;8.02;;;1.33;;
16440;SDS011;8330;-33.858;151.184;2022-12-11T03:24:14;3.88;;;1.05;;
16440;SDS011;8330;-33.858;151.184;2022-12-11T03:26:51;3.42;;;1.20;;
16440;SDS011;8330;-33.858;151.184;2022-12-11T03:29:30;3.38;;;1.33;;
16440;SDS011;8330;-33.858;151.184;2022-12-11T03:32:06;3.47;;;1.45;;
16440;SDS011;8330;-33.858;151.184;2022-12-11T03:34:44;4.20;;;1.33;;
16440;SDS011;8330;-33.858;151.184;2022-12-11T03:37:21;5.65;;;1.48;;
16440;SDS011;8330;-33.858;151.184;2022-12-11T03:39:54;6.22;;;1.50;;
16440;SDS011;8330;-33.858;151.184;2022-12-11T03:42:27;4.65;;;1.40;;
16440;SDS011;8330;-33.858;151.184;2022-12-11T03:44:59;5.78;;;1.40;;
16440;SDS011;8330;-33.858;151.184;2022-12-11T03:47:35;4.15;;;1.30;;
16440;SDS011;8330;-33.858;151.184;2022-12-11T03:50:07;3.97;;;1.30;;
16440;SDS011;8330;-33.858;151.184;2022-12-11T03:52:41;5.80;;;1.38;;
16440;SDS011;8330;-33.858;151.184;2022-12-11T03:55:15;5.80;;;1.40;;
16440;SDS011;8330;-33.858;151.184;2022-12-11T03:57:49;4.50;;;1.40;;
16440;SDS011;8330;-33.858;151.184;2022-12-11T04:00:20;7.78;;;1.50;;
16440;SDS011;8330;-33.858;151.184;2022-12-11T04:02:55;4.03;;;1.23;;
16440;SDS011;8330;-33.858;151.184;2022-12-11T04:05:43;6.82;;;1.40;;
16440;SDS011;8330;-33.858;151.184;2022-12-11T04:08:16;4.88;;;1.33;;
16440;SDS011;8330;-33.858;151.184;2022-12-11T04:10:48;7.70;;;1.38;;
16440;SDS011;8330;-33.858;151.184;2022-12-11T04:13:39;5.40;;;1.38;;
16440;SDS011;8330;-33.858;151.184;2022-12-11T04:16:10;4.30;;;1.40;;
16440;SDS011;8330;-33.858;151.184;2022-12-11T04:18:42;6.03;;;1.25;;
16440;SDS011;8330;-33.858;151.184;2022-12-11T04:21:28;5.38;;;1.17;;
16440;SDS011;8330;-33.858;151.184;2022-12-11T04:24:15;4.70;;;1.27;;
16440;SDS011;8330;-33.858;151.184;2022-12-11T04:26:46;5.45;;;1.50;;
16440;SDS011;8330;-33.858;151.184;2022-12-11T04:29:17;5.50;;;1.50;;
16440;SDS011;8330;-33.858;151.184;2022-12-11T04:31:47;4.63;;;1.35;;
16440;SDS011;8330;-33.858;151.184;2022-12-11T04:34:21;5.13;;;1.23;;
16440;SDS011;8330;-33.858;151.184;2022-12-11T04:36:53;6.15;;;1.17;;
16440;SDS011;8330;-33.858;151.184;2022-12-11T04:39:26;5.70;;;1.48;;
16440;SDS011;8330;-33.858;151.184;2022-12-11T04:41:57;6.18;;;1.30;;
16440;SDS011;8330;-33.858;151.184;2022-12-11T04:44:28;3.40;;;0.98;;
16440;SDS011;8330;-33.858;151.184;2022-12-11T04:46:59;5.03;;;1.35;;
16440;SDS011;8330;-33.858;151.184;2022-12-11T04:49:32;3.63;;;1.20;;
16440;SDS011;8330;-33.858;151.184;2022-12-11T04:52:06;5.85;;;1.30;;
16440;SDS011;8330;-33.858;151.184;2022-12-11T04:54:37;7.68;;;1.33;;
16440;SDS011;8330;-33.858;151.184;2022-12-11T04:57:07;5.57;;;1.13;;
16440;SDS011;8330;-33.858;151.184;2022-12-11T04:59:38;7.15;;;1.20;;
16440;SDS011;8330;-33.858;151.184;2022-12-11T05:02:09;7.20;;;1.20;;
16440;SDS011;8330;-33.858;151.184;2022-12-11T05:04:42;3.55;;;1.20;;
16440;SDS011;8330;-33.858;151.184;2022-12-11T05:07:13;4.95;;;1.40;;
16440;SDS011;8330;-33.858;151.184;2022-12-11T05:09:44;5.03;;;1.45;;
16440;SDS011;8330;-33.858;151.184;2022-12-11T05:12:16;4.55;;;1.20;;
16440;SDS011;8330;-33.858;151.184;2022-12-11T05:14:50;7.63;;;1.58;;
16440;SDS011;8330;-33.858;151.184;2022-12-11T05:17:21;7.00;;;1.20;;
16440;SDS011;8330;-33.858;151.184;2022-12-11T05:19:55;6.30;;;1.50;;
16440;SDS011;8330;-33.858;151.184;2022-12-11T05:22:29;4.57;;;1.33;;
16440;SDS011;8330;-33.858;151.184;2022-12-11T05:25:00;6.20;;;1.55;;
16440;SDS011;8330;-33.858;151.184;2022-12-11T05:27:32;5.75;;;1.42;;
16440;SDS011;8330;-33.858;151.184;2022-12-11T05:30:03;8.93;;;1.70;;
16440;SDS011;8330;-33.858;151.184;2022-12-11T05:32:35;10.25;;;1.73;;
16440;SDS011;8330;-33.858;151.184;2022-12-11T05:35:09;5.18;;;1.63;;
16440;SDS011;8330;-33.858;151.184;2022-12-11T05:37:41;6.15;;;1.50;;
16440;SDS011;8330;-33.858;151.184;2022-12-11T05:40:13;5.28;;;1.50;;
16440;SDS011;8330;-33.858;151.184;2022-12-11T05:42:44;5.10;;;1.48;;
16440;SDS011;8330;-33.858;151.184;2022-12-11T05:45:15;5.75;;;1.50;;
16440;SDS011;8330;-33.858;151.184;2022-12-11T05:47:45;7.60;;;1.63;;
16440;SDS011;8330;-33.858;151.184;2022-12-11T05:50:18;6.82;;;1.50;;
16440;SDS011;8330;-33.858;151.184;2022-12-11T05:52:49;8.45;;;1.70;;
16440;SDS011;8330;-33.858;151.184;2022-12-11T05:55:20;5.38;;;1.40;;
16440;SDS011;8330;-33.858;151.184;2022-12-11T05:57:52;8.50;;;1.50;;
16440;SDS011;8330;-33.858;151.184;2022-12-11T06:00:22;8.57;;;1.77;;
16440;SDS011;8330;-33.858;151.184;2022-12-11T06:02:53;5.13;;;1.50;;
16440;SDS011;8330;-33.858;151.184;2022-12-11T06:05:27;5.00;;;1.30;;
16440;SDS011;8330;-33.858;151.184;2022-12-11T06:08:00;6.35;;;1.40;;
16440;SDS011;8330;-33.858;151.184;2022-12-11T06:10:34;6.10;;;1.50;;
16440;SDS011;8330;-33.858;151.184;2022-12-11T06:13:05;4.47;;;1.15;;
16440;SDS011;8330;-33.858;151.184;2022-12-11T06:15:35;4.53;;;1.33;;
16440;SDS011;8330;-33.858;151.184;2022-12-11T06:18:07;5.45;;;1.45;;
16440;SDS011;8330;-33.858;151.184;2022-12-11T06:20:41;5.93;;;1.52;;
16440;SDS011;8330;-33.858;151.184;2022-12-11T06:23:11;6.32;;;1.50;;
16440;SDS011;8330;-33.858;151.184;2022-12-11T06:25:43;4.25;;;1.60;;
16440;SDS011;8330;-33.858;151.184;2022-12-11T06:28:14;5.50;;;1.52;;
16440;SDS011;8330;-33.858;151.184;2022-12-11T06:30:45;7.85;;;1.67;;
16440;SDS011;8330;-33.858;151.184;2022-12-11T06:33:15;7.95;;;1.70;;
16440;SDS011;8330;-33.858;151.184;2022-12-11T06:35:48;7.82;;;1.55;;
16440;SDS011;8330;-33.858;151.184;2022-12-11T06:38:19;5.43;;;1.70;;
16440;SDS011;8330;-33.858;151.184;2022-12-11T06:40:53;7.15;;;1.30;;
16440;SDS011;8330;-33.858;151.184;2022-12-11T06:43:24;7.10;;;1.60;;
16440;SDS011;8330;-33.858;151.184;2022-12-11T06:45:55;6.75;;;1.50;;
16440;SDS011;8330;-33.858;151.184;2022-12-11T06:48:26;5.80;;;1.63;;
16440;SDS011;8330;-33.858;151.184;2022-12-11T06:50:59;6.28;;;1.67;;
16440;SDS011;8330;-33.858;151.184;2022-12-11T06:53:34;5.85;;;1.80;;
16440;SDS011;8330;-33.858;151.184;2022-12-11T06:56:06;7.82;;;2.10;;
16440;SDS011;8330;-33.858;151.184;2022-12-11T06:58:38;7.47;;;1.75;;
16440;SDS011;8330;-33.858;151.184;2022-12-11T07:01:13;7.70;;;1.58;;
16440;SDS011;8330;-33.858;151.184;2022-12-11T07:03:46;8.32;;;1.75;;
16440;SDS011;8330;-33.858;151.184;2022-12-11T07:06:19;7.95;;;1.65;;
16440;SDS011;8330;-33.858;151.184;2022-12-11T07:08:50;4.90;;;1.25;;
16440;SDS011;8330;-33.858;151.184;2022-12-11T07:11:21;7.82;;;1.60;;
16440;SDS011;8330;-33.858;151.184;2022-12-11T07:13:52;5.82;;;1.42;;
16440;SDS011;8330;-33.858;151.184;2022-12-11T07:16:23;5.32;;;1.60;;
16440;SDS011;8330;-33.858;151.184;2022-12-11T07:18:53;5.13;;;1.52;;
16440;SDS011;8330;-33.858;151.184;2022-12-11T07:21:26;6.38;;;1.60;;
16440;SDS011;8330;-33.858;151.184;2022-12-11T07:23:57;5.03;;;1.40;;
16440;SDS011;8330;-33.858;151.184;2022-12-11T07:26:30;4.50;;;1.40;;
16440;SDS011;8330;-33.858;151.184;2022-12-11T07:29:01;7.90;;;1.83;;
16440;SDS011;8330;-33.858;151.184;2022-12-11T07:31:32;7.00;;;1.60;;
16440;SDS011;8330;-33.858;151.184;2022-12-11T07:34:03;5.70;;;1.42;;
16440;SDS011;8330;-33.858;151.184;2022-12-11T07:36:36;9.93;;;1.70;;
16440;SDS011;8330;-33.858;151.184;2022-12-11T07:39:07;6.70;;;1.42;;
16440;SDS011;8330;-33.858;151.184;2022-12-11T07:41:40;4.35;;;1.30;;
16440;SDS011;8330;-33.858;151.184;2022-12-11T07:44:12;5.55;;;1.40;;
16440;SDS011;8330;-33.858;151.184;2022-12-11T07:46:43;8.57;;;1.65;;
16440;SDS011;8330;-33.858;151.184;2022-12-11T07:49:14;9.13;;;1.50;;
16440;SDS011;8330;-33.858;151.184;2022-12-11T07:51:47;9.05;;;1.92;;
16440;SDS011;8330;-33.858;151.184;2022-12-11T07:54:18;8.60;;;1.85;;
16440;SDS011;8330;-33.858;151.184;2022-12-11T07:56:49;5.80;;;1.50;;
16440;SDS011;8330;-33.858;151.184;2022-12-11T07:59:20;4.53;;;1.40;;
16440;SDS011;8330;-33.858;151.184;2022-12-11T08:01:50;6.90;;;1.42;;
16440;SDS011;8330;-33.858;151.184;2022-12-11T08:04:21;7.32;;;1.55;;
16440;SDS011;8330;-33.858;151.184;2022-12-11T08:06:54;5.35;;;1.58;;
16440;SDS011;8330;-33.858;151.184;2022-12-11T08:09:25;5.80;;;1.60;;
16440;SDS011;8330;-33.858;151.184;2022-12-11T08:11:56;8.82;;;2.15;;
16440;SDS011;8330;-33.858;151.184;2022-12-11T08:14:27;9.52;;;1.70;;
16440;SDS011;8330;-33.858;151.184;2022-12-11T08:16:57;8.32;;;2.20;;
16440;SDS011;8330;-33.858;151.184;2022-12-11T08:19:28;11.52;;;2.28;;
16440;SDS011;8330;-33.858;151.184;2022-12-11T08:22:01;7.43;;;2.03;;
16440;SDS011;8330;-33.858;151.184;2022-12-11T08:24:32;7.65;;;2.08;;
16440;SDS011;8330;-33.858;151.184;2022-12-11T08:27:03;3.95;;;1.30;;
16440;SDS011;8330;-33.858;151.184;2022-12-11T08:29:33;5.68;;;1.17;;
16440;SDS011;8330;-33.858;151.184;2022-12-11T08:32:04;8.38;;;1.77;;
16440;SDS011;8330;-33.858;151.184;2022-12-11T08:34:35;5.13;;;1.38;;
16440;SDS011;8330;-33.858;151.184;2022-12-11T08:37:09;7.00;;;1.63;;
16440;SDS011;8330;-33.858;151.184;2022-12-11T08:39:40;9.57;;;1.70;;
16440;SDS011;8330;-33.858;151.184;2022-12-11T08:42:12;9.15;;;1.58;;
16440;SDS011;8330;-33.858;151.184;2022-12-11T08:44:42;9.13;;;1.52;;
16440;SDS011;8330;-33.858;151.184;2022-12-11T08:47:13;6.57;;;1.60;;
16440;SDS011;8330;-33.858;151.184;2022-12-11T08:49:45;6.97;;;1.48;;
16440;SDS011;8330;-33.858;151.184;2022-12-11T08:52:18;7.68;;;1.27;;
16440;SDS011;8330;-33.858;151.184;2022-12-11T08:54:48;9.05;;;1.45;;
16440;SDS011;8330;-33.858;151.184;2022-12-11T08:57:19;5.10;;;1.30;;
16440;SDS011;8330;-33.858;151.184;2022-12-11T08:59:50;5.88;;;1.52;;
16440;SDS011;8330;-33.858;151.184;2022-12-11T09:02:21;6.05;;;1.70;;
16440;SDS011;8330;-33.858;151.184;2022-12-11T09:04:52;6.07;;;1.48;;
16440;SDS011;8330;-33.858;151.184;2022-12-11T09:07:26;4.68;;;1.70;;
16440;SDS011;8330;-33.858;151.184;2022-12-11T09:09:57;4.95;;;1.42;;
16440;SDS011;8330;-33.858;151.184;2022-12-11T09:12:28;8.43;;;1.92;;
16440;SDS011;8330;-33.858;151.184;2022-12-11T09:15:00;9.98;;;1.80;;
16440;SDS011;8330;-33.858;151.184;2022-12-11T09:17:31;5.15;;;1.55;;
16440;SDS011;8330;-33.858;151.184;2022-12-11T09:20:05;6.40;;;1.60;;
16440;SDS011;8330;-33.858;151.184;2022-12-11T09:22:38;12.45;;;2.25;;
16440;SDS011;8330;-33.858;151.184;2022-12-11T09:25:10;5.95;;;1.48;;
16440;SDS011;8330;-33.858;151.184;2022-12-11T09:27:41;11.05;;;1.92;;
16440;SDS011;8330;-33.858;151.184;2022-12-11T09:30:12;9.10;;;2.03;;
16440;SDS011;8330;-33.858;151.184;2022-12-11T09:32:43;8.45;;;1.90;;
16440;SDS011;8330;-33.858;151.184;2022-12-11T09:35:15;5.20;;;1.58;;
16440;SDS011;8330;-33.858;151.184;2022-12-11T09:37:47;10.80;;;2.30;;
16440;SDS011;8330;-33.858;151.184;2022-12-11T09:40:19;7.63;;;1.77;;
16440;SDS011;8330;-33.858;151.184;2022-12-11T09:42:57;10.07;;;2.30;;
16440;SDS011;8330;-33.858;151.184;2022-12-11T09:45:34;6.95;;;1.70;;
16440;SDS011;8330;-33.858;151.184;2022-12-11T09:48:07;12.13;;;1.92;;
16440;SDS011;8330;-33.858;151.184;2022-12-11T09:50:39;8.13;;;2.03;;
16440;SDS011;8330;-33.858;151.184;2022-12-11T09:53:13;11.15;;;2.38;;
16440;SDS011;8330;-33.858;151.184;2022-12-11T09:55:52;8.98;;;1.90;;
16440;SDS011;8330;-33.858;151.184;2022-12-11T09:58:30;10.40;;;1.88;;
16440;SDS011;8330;-33.858;151.184;2022-12-11T10:01:09;3.90;;;1.60;;
16440;SDS011;8330;-33.858;151.184;2022-12-11T10:03:51;7.07;;;1.90;;
16440;SDS011;8330;-33.858;151.184;2022-12-11T10:06:34;7.63;;;2.08;;
16440;SDS011;8330;-33.858;151.184;2022-12-11T10:09:13;12.05;;;2.08;;
16440;SDS011;8330;-33.858;151.184;2022-12-11T10:11:59;7.28;;;1.95;;
16440;SDS011;8330;-33.858;151.184;2022-12-11T10:14:43;13.02;;;2.65;;
16440;SDS011;8330;-33.858;151.184;2022-12-11T10:17:24;9.48;;;1.92;;
16440;SDS011;8330;-33.858;151.184;2022-12-11T10:20:09;8.55;;;1.83;;
16440;SDS011;8330;-33.858;151.184;2022-12-11T10:23:01;8.95;;;2.35;;
16440;SDS011;8330;-33.858;151.184;2022-12-11T10:25:39;10.75;;;2.10;;
16440;SDS011;8330;-33.858;151.184;2022-12-11T10:28:18;11.73;;;2.35;;
16440;SDS011;8330;-33.858;151.184;2022-12-11T10:30:53;9.43;;;2.20;;
16440;SDS011;8330;-33.858;151.184;2022-12-11T10:33:33;7.72;;;1.90;;
16440;SDS011;8330;-33.858;151.184;2022-12-11T10:36:17;12.63;;;2.65;;
16440;SDS011;8330;-33.858;151.184;2022-12-11T10:38:56;10.70;;;2.55;;
16440;SDS011;8330;-33.858;151.184;2022-12-11T10:41:35;8.80;;;2.40;;
16440;SDS011;8330;-33.858;151.184;2022-12-11T10:44:13;7.43;;;1.90;;
16440;SDS011;8330;-33.858;151.184;2022-12-11T10:46:48;9.25;;;1.85;;
16440;SDS011;8330;-33.858;151.184;2022-12-11T10:49:31;10.52;;;2.13;;
16440;SDS011;8330;-33.858;151.184;2022-12-11T10:52:09;15.98;;;2.88;;
16440;SDS011;8330;-33.858;151.184;2022-12-11T10:54:43;14.07;;;2.70;;
16440;SDS011;8330;-33.858;151.184;2022-12-11T10:57:27;7.47;;;2.35;;
16440;SDS011;8330;-33.858;151.184;2022-12-11T10:59:59;11.13;;;2.45;;
16440;SDS011;8330;-33.858;151.184;2022-12-11T11:02:33;12.65;;;2.63;;
16440;SDS011;8330;-33.858;151.184;2022-12-11T11:05:16;10.25;;;2.65;;
16440;SDS011;8330;-33.858;151.184;2022-12-11T11:08:08;9.32;;;2.15;;
16440;SDS011;8330;-33.858;151.184;2022-12-11T11:10:51;9.13;;;2.25;;
16440;SDS011;8330;-33.858;151.184;2022-12-11T11:13:29;12.07;;;2.45;;
16440;SDS011;8330;-33.858;151.184;2022-12-11T11:16:06;13.73;;;2.75;;
16440;SDS011;8330;-33.858;151.184;2022-12-11T11:18:40;13.07;;;2.63;;
16440;SDS011;8330;-33.858;151.184;2022-12-11T11:21:19;14.68;;;3.00;;
16440;SDS011;8330;-33.858;151.184;2022-12-11T11:23:51;8.50;;;2.50;;
16440;SDS011;8330;-33.858;151.184;2022-12-11T11:26:22;12.35;;;2.85;;
16440;SDS011;8330;-33.858;151.184;2022-12-11T11:28:55;11.95;;;2.60;;
16440;SDS011;8330;-33.858;151.184;2022-12-11T11:31:30;9.65;;;2.72;;
16440;SDS011;8330;-33.858;151.184;2022-12-11T11:34:03;13.10;;;2.90;;
16440;SDS011;8330;-33.858;151.184;2022-12-11T11:36:38;12.65;;;3.00;;
16440;SDS011;8330;-33.858;151.184;2022-12-11T11:39:15;13.43;;;3.30;;
16440;SDS011;8330;-33.858;151.184;2022-12-11T11:41:50;14.23;;;3.20;;
16440;SDS011;8330;-33.858;151.184;2022-12-11T11:44:29;12.45;;;2.85;;
16440;SDS011;8330;-33.858;151.184;2022-12-11T11:47:04;8.85;;;2.92;;
16440;SDS011;8330;-33.858;151.184;2022-12-11T11:49:48;11.73;;;3.03;;
16440;SDS011;8330;-33.858;151.184;2022-12-11T11:52:24;13.38;;;3.15;;
16440;SDS011;8330;-33.858;151.184;2022-12-11T11:55:06;10.32;;;2.35;;
16440;SDS011;8330;-33.858;151.184;2022-12-11T11:57:46;11.40;;;2.70;;
16440;SDS011;8330;-33.858;151.184;2022-12-11T12:00:27;10.50;;;2.80;;
16440;SDS011;8330;-33.858;151.184;2022-12-11T12:03:00;9.52;;;2.47;;
16440;SDS011;8330;-33.858;151.184;2022-12-11T12:05:34;12.60;;;3.08;;
16440;SDS011;8330;-33.858;151.184;2022-12-11T12:08:11;10.40;;;2.80;;
16440;SDS011;8330;-33.858;151.184;2022-12-11T12:10:49;10.00;;;3.00;;
16440;SDS011;8330;-33.858;151.184;2022-12-11T12:13:29;13.85;;;3.03;;
16440;SDS011;8330;-33.858;151.184;2022-12-11T12:16:10;12.77;;;2.63;;
16440;SDS011;8330;-33.858;151.184;2022-12-11T12:18:48;12.07;;;3.00;;
16440;SDS011;8330;-33.858;151.184;2022-12-11T12:21:33;10.68;;;2.63;;
16440;SDS011;8330;-33.858;151.184;2022-12-11T12:24:11;13.57;;;3.08;;
16440;SDS011;8330;-33.858;151.184;2022-12-11T12:26:50;11.27;;;2.50;;
16440;SDS011;8330;-33.858;151.184;2022-12-11T12:29:28;12.35;;;2.45;;
16440;SDS011;8330;-33.858;151.184;2022-12-11T12:32:15;13.45;;;3.08;;
16440;SDS011;8330;-33.858;151.184;2022-12-11T12:34:55;7.63;;;2.53;;
16440;SDS011;8330;-33.858;151.184;2022-12-11T12:37:41;10.90;;;2.90;;
16440;SDS011;8330;-33.858;151.184;2022-12-11T12:40:21;8.95;;;2.60;;
16440;SDS011;8330;-33.858;151.184;2022-12-11T12:43:01;11.73;;;2.80;;
16440;SDS011;8330;-33.858;151.184;2022-12-11T12:45:46;12.98;;;2.55;;
16440;SDS011;8330;-33.858;151.184;2022-12-11T12:48:32;7.90;;;2.58;;
16440;SDS011;8330;-33.858;151.184;2022-12-11T12:51:08;11.02;;;2.75;;
16440;SDS011;8330;-33.858;151.184;2022-12-11T12:53:47;9.77;;;2.72;;
16440;SDS011;8330;-33.858;151.184;2022-12-11T12:56:22;11.50;;;2.47;;
16440;SDS011;8330;-33.858;151.184;2022-12-11T12:58:55;10.38;;;2.55;;
16440;SDS011;8330;-33.858;151.184;2022-12-11T13:01:27;10.98;;;2.50;;
16440;SDS011;8330;-33.858;151.184;2022-12-11T13:04:02;8.43;;;2.45;;
16440;SDS011;8330;-33.858;151.184;2022-12-11T13:06:40;13.45;;;2.97;;
16440;SDS011;8330;-33.858;151.184;2022-12-11T13:09:15;7.40;;;1.98;;
16440;SDS011;8330;-33.858;151.184;2022-12-11T13:11:54;9.02;;;2.08;;
16440;SDS011;8330;-33.858;151.184;2022-12-11T13:14:26;5.88;;;2.20;;
16440;SDS011;8330;-33.858;151.184;2022-12-11T13:17:06;9.38;;;2.38;;
16440;SDS011;8330;-33.858;151.184;2022-12-11T13:20:17;9.68;;;2.20;;
16440;SDS011;8330;-33.858;151.184;2022-12-11T13:22:50;5.57;;;1.92;;
16440;SDS011;8330;-33.858;151.184;2022-12-11T13:25:26;9.13;;;2.30;;
16440;SDS011;8330;-33.858;151.184;2022-12-11T13:28:05;6.22;;;2.22;;
16440;SDS011;8330;-33.858;151.184;2022-12-11T13:31:01;7.63;;;2.08;;
16440;SDS011;8330;-33.858;151.184;2022-12-11T13:33:38;6.07;;;2.00;;
16440;SDS011;8330;-33.858;151.184;2022-12-11T13:36:25;7.25;;;1.90;;
16440;SDS011;8330;-33.858;151.184;2022-12-11T13:39:02;6.10;;;1.83;;
16440;SDS011;8330;-33.858;151.184;2022-12-11T13:41:36;4.93;;;1.70;;
16440;SDS011;8330;-33.858;151.184;2022-12-11T13:44:11;5.20;;;1.75;;
16440;SDS011;8330;-33.858;151.184;2022-12-11T13:46:52;5.03;;;1.92;;
16440;SDS011;8330;-33.858;151.184;2022-12-11T13:49:26;5.35;;;1.88;;
16440;SDS011;8330;-33.858;151.184;2022-12-11T13:52:04;6.25;;;2.05;;
16440;SDS011;8330;-33.858;151.184;2022-12-11T13:54:46;5.05;;;2.00;;
16440;SDS011;8330;-33.858;151.184;2022-12-11T13:57:21;5.38;;;1.95;;
16440;SDS011;8330;-33.858;151.184;2022-12-11T13:59:54;9.18;;;2.00;;
16440;SDS011;8330;-33.858;151.184;2022-12-11T14:02:26;6.88;;;2.05;;
16440;SDS011;8330;-33.858;151.184;2022-12-11T14:05:01;8.07;;;2.38;;
16440;SDS011;8330;-33.858;151.184;2022-12-11T14:07:36;6.10;;;2.00;;
16440;SDS011;8330;-33.858;151.184;2022-12-11T14:10:13;7.03;;;2.20;;
16440;SDS011;8330;-33.858;151.184;2022-12-11T14:12:50;5.72;;;2.22;;
16440;SDS011;8330;-33.858;151.184;2022-12-11T14:15:22;7.57;;;2.28;;
16440;SDS011;8330;-33.858;151.184;2022-12-11T14:17:54;6.72;;;2.15;;
16440;SDS011;8330;-33.858;151.184;2022-12-11T14:20:26;6.07;;;2.00;;
16440;SDS011;8330;-33.858;151.184;2022-12-11T14:23:05;4.30;;;1.50;;
16440;SDS011;8330;-33.858;151.184;2022-12-11T14:25:51;6.50;;;1.80;;
16440;SDS011;8330;-33.858;151.184;2022-12-11T14:28:22;4.45;;;1.60;;
16440;SDS011;8330;-33.858;151.184;2022-12-11T14:30:57;5.72;;;1.48;;
16440;SDS011;8330;-33.858;151.184;2022-12-11T14:33:29;5.60;;;1.75;;
16440;SDS011;8330;-33.858;151.184;2022-12-11T14:36:03;4.90;;;1.70;;
16440;SDS011;8330;-33.858;151.184;2022-12-11T14:38:37;4.55;;;1.40;;
16440;SDS011;8330;-33.858;151.184;2022-12-11T14:41:12;6.15;;;1.65;;
16440;SDS011;8330;-33.858;151.184;2022-12-11T14:43:48;4.25;;;1.73;;
16440;SDS011;8330;-33.858;151.184;2022-12-11T14:46:22;8.93;;;1.80;;
16440;SDS011;8330;-33.858;151.184;2022-12-11T14:49:05;6.78;;;1.83;;
16440;SDS011;8330;-33.858;151.184;2022-12-11T14:51:40;4.38;;;1.40;;
16440;SDS011;8330;-33.858;151.184;2022-12-11T14:54:18;4.03;;;1.23;;
16440;SDS011;8330;-33.858;151.184;2022-12-11T14:56:55;5.57;;;1.30;;
16440;SDS011;8330;-33.858;151.184;2022-12-11T14:59:28;6.93;;;1.40;;
16440;SDS011;8330;-33.858;151.184;2022-12-11T15:02:19;3.38;;;1.10;;
16440;SDS011;8330;-33.858;151.184;2022-12-11T15:04:59;5.88;;;1.20;;
16440;SDS011;8330;-33.858;151.184;2022-12-11T15:07:40;5.82;;;1.40;;